Time;durP1;ratioP1;P1;durP2;ratioP2;P2;SDS_P1;SDS_P2;PMS_P1;PMS_P2;Temp;Humidity;BMP_temperature;BMP_pressure;BME280_temperature;BME280_humidity;BME280_pressure;Samples;Min_cycle;Max_cycle;Signal;HPM_P1;HPM_P2
2023/07/14 00:01:49;;;;;;;4.57;3.13;;;;;;;20.44;49.52;96540.34;5028464;28;20445;-71
2023/07/14 00:04:20;;;;;;;8.03;3.63;;;;;;;20.76;48.65;96544.03;5028351;28;20652;-70
2023/07/14 00:06:46;;;;;;;10.67;3.30;;;;;;;20.63;49.31;96549.53;5028583;28;20187;-70
2023/07/14 00:09:32;;;;;;;7.30;3.93;;;;;;;20.62;48.95;96542.50;5028025;28;20493;-71
2023/07/14 00:11:58;;;;;;;6.93;3.40;;;;;;;20.66;48.08;96539.44;5027738;28;20207;-69
2023/07/14 00:14:24;;;;;;;6.80;3.80;;;;;;;20.67;47.86;96535.81;5027979;28;20465;-72
2023/07/14 00:16:50;;;;;;;6.53;2.90;;;;;;;20.57;48.08;96540.19;5028340;28;20418;-71
2023/07/14 00:19:18;;;;;;;5.93;3.00;;;;;;;20.51;48.41;96544.19;5027704;28;20176;-71
2023/07/14 00:21:45;;;;;;;6.23;3.10;;;;;;;20.65;47.96;96524.44;5028129;28;20204;-70
2023/07/14 00:24:13;;;;;;;7.57;3.67;;;;;;;20.62;48.56;96535.38;5028133;28;20417;-71
2023/07/14 00:26:43;;;;;;;5.13;3.00;;;;;;;20.52;48.63;96527.22;5027710;28;20445;-70
2023/07/14 00:29:37;;;;;;;4.83;3.20;;;;;;;20.50;48.79;96530.97;5027219;28;20499;-72
2023/07/14 00:32:12;;;;;;;4.67;3.20;;;;;;;20.48;48.95;96527.59;5027703;28;20437;-72
2023/07/14 00:34:38;;;;;;;3.77;2.87;;;;;;;20.64;48.53;96517.38;5027822;28;20461;-71
2023/07/14 00:37:03;;;;;;;5.10;3.20;;;;;;;20.55;48.35;96525.28;5027783;28;20517;-70
2023/07/14 00:39:28;;;;;;;6.23;3.13;;;;;;;20.25;49.20;96518.81;5027520;28;20226;-71
2023/07/14 00:41:54;;;;;;;12.33;3.50;;;;;;;20.27;49.36;96519.53;5027313;28;20207;-71
2023/07/14 00:44:19;;;;;;;5.33;3.07;;;;;;;20.21;49.76;96523.53;5027409;28;20243;-71
2023/07/14 00:46:46;;;;;;;7.23;4.50;;;;;;;20.08;49.81;96523.69;5027730;28;20180;-70
2023/07/14 00:49:33;;;;;;;10.33;3.53;;;;;;;19.96;50.12;96511.34;5047774;28;20259;-72
2023/07/14 00:52:05;;;;;;;5.33;3.30;;;;;;;19.99;50.04;96513.75;5047444;28;20194;-70
2023/07/14 00:54:31;;;;;;;6.43;3.77;;;;;;;20.08;49.88;96513.03;5047544;28;20472;-70
2023/07/14 00:56:57;;;;;;;4.57;3.43;;;;;;;20.15;50.06;96508.06;5047123;28;20413;-70
2023/07/14 00:59:33;;;;;;;4.73;3.20;;;;;;;20.13;49.87;96510.00;5046948;28;20181;-71
2023/07/14 01:02:10;;;;;;;6.90;3.70;;;;;;;20.16;50.02;96506.22;5047315;28;20432;-71
2023/07/14 01:04:41;;;;;;;4.90;3.40;;;;;;;20.06;50.28;96508.81;5047056;28;20405;-70
2023/07/14 01:07:07;;;;;;;7.63;3.20;;;;;;;20.06;50.14;96504.31;5046831;28;20424;-70
2023/07/14 01:09:34;;;;;;;8.00;4.03;;;;;;;20.07;50.33;96505.16;5046744;28;20405;-71
2023/07/14 01:12:02;;;;;;;5.63;3.07;;;;;;;20.07;50.44;96495.34;5046967;28;21063;-71
2023/07/14 01:14:32;;;;;;;6.97;3.53;;;;;;;20.00;50.73;96504.78;5049175;28;20468;-70
2023/07/14 01:16:59;;;;;;;13.80;3.80;;;;;;;20.07;50.75;96487.34;5051342;28;20401;-71
2023/07/14 01:19:53;;;;;;;4.37;3.40;;;;;;;20.11;50.79;96495.09;5046408;28;20405;-71
2023/07/14 01:22:27;;;;;;;5.70;3.93;;;;;;;20.07;50.89;96498.00;5042486;28;20844;-71
2023/07/14 01:25:07;;;;;;;4.90;3.17;;;;;;;20.06;50.68;96496.31;5046093;28;20489;-69
2023/07/14 01:27:33;;;;;;;13.63;4.20;;;;;;;19.60;51.91;96497.28;5046541;28;20700;-71
2023/07/14 01:29:59;;;;;;;14.93;4.30;;;;;;;19.38;52.84;96508.75;5046381;28;20428;-71
2023/07/14 01:32:35;;;;;;;8.90;4.20;;;;;;;19.29;53.11;96493.50;5046362;28;20194;-71
2023/07/14 01:35:03;;;;;;;10.93;3.73;;;;;;;19.32;52.92;96497.72;5046688;28;20883;-70
2023/07/14 01:37:28;;;;;;;6.80;3.50;;;;;;;19.21;53.48;96491.44;5046695;28;20436;-71
2023/07/14 01:39:54;;;;;;;8.60;3.23;;;;;;;19.07;54.18;96489.00;5046252;28;21174;-71
2023/07/14 01:42:20;;;;;;;7.30;3.87;;;;;;;18.95;54.66;96480.13;5046784;28;20601;-72
2023/07/14 01:44:48;;;;;;;13.60;4.03;;;;;;;18.85;54.34;96487.13;5046564;28;20175;-71
2023/07/14 01:47:14;;;;;;;13.50;3.90;;;;;;;18.68;55.49;96485.69;5042301;28;20190;-71
2023/07/14 01:49:47;;;;;;;5.70;3.57;;;;;;;18.65;55.87;96487.75;5026328;28;20418;-71
2023/07/14 01:52:21;;;;;;;6.23;3.90;;;;;;;18.52;56.04;96487.78;5026570;28;20430;-70
2023/07/14 01:54:51;;;;;;;12.70;4.50;;;;;;;18.59;55.87;96484.59;5026071;28;20448;-72
2023/07/14 01:57:22;;;;;;;5.30;3.07;;;;;;;18.71;54.91;96489.91;5026301;28;20420;-71
2023/07/14 01:59:54;;;;;;;6.60;3.70;;;;;;;18.76;54.31;96483.34;5025968;28;20406;-70
2023/07/14 02:02:27;;;;;;;8.67;3.87;;;;;;;18.70;54.73;96486.41;5025871;28;21142;-71
2023/07/14 02:04:53;;;;;;;13.90;3.70;;;;;;;18.74;54.46;96473.75;5026025;28;20440;-71
2023/07/14 02:07:19;;;;;;;7.80;3.43;;;;;;;18.73;54.54;96480.91;5026189;28;20406;-71
2023/07/14 02:09:45;;;;;;;15.97;4.57;;;;;;;18.72;54.66;96475.69;5025833;28;20175;-71
2023/07/14 02:12:16;;;;;;;7.93;4.03;;;;;;;18.73;54.57;96480.91;5026062;28;20966;-72
2023/07/14 02:14:49;;;;;;;38.87;7.00;;;;;;;18.76;54.59;96479.81;5025972;28;20465;-71
2023/07/14 02:17:31;;;;;;;22.50;5.10;;;;;;;18.88;54.14;96480.72;5026121;28;20413;-71
2023/07/14 02:19:58;;;;;;;11.43;4.43;;;;;;;18.70;54.73;96474.94;5025745;28;20926;-70
2023/07/14 02:22:24;;;;;;;4.90;3.60;;;;;;;18.65;55.15;96479.78;5026055;28;20442;-71
2023/07/14 02:24:51;;;;;;;6.10;3.67;;;;;;;18.69;55.16;96479.44;5026082;28;20449;-71
2023/07/14 02:27:17;;;;;;;26.80;4.90;;;;;;;18.61;55.03;96485.31;5026230;28;20417;-71
2023/07/14 02:29:42;;;;;;;29.10;4.77;;;;;;;18.59;55.04;96484.59;5025764;28;20787;-71
2023/07/14 02:32:07;;;;;;;10.10;3.97;;;;;;;18.72;54.83;96486.31;5025945;28;20695;-71
2023/07/14 02:34:38;;;;;;;10.70;4.67;;;;;;;18.70;54.58;96483.75;5025897;28;20218;-71
2023/07/14 02:37:24;;;;;;;13.80;4.37;;;;;;;18.53;55.22;96484.19;5027290;28;20176;-71
2023/07/14 02:39:50;;;;;;;7.50;3.67;;;;;;;18.49;55.06;96482.72;5029337;28;20444;-71
2023/07/14 02:42:15;;;;;;;3.93;3.57;;;;;;;18.39;54.99;96483.38;5029758;28;20830;-71
2023/07/14 02:44:41;;;;;;;18.43;5.10;;;;;;;18.38;55.11;96486.19;5029611;28;20221;-71
2023/07/14 02:47:14;;;;;;;20.33;6.17;;;;;;;18.26;55.51;96476.44;5014980;28;20632;-71
2023/07/14 02:49:41;;;;;;;12.90;3.90;;;;;;;18.16;55.53;96481.56;5049032;28;20245;-72
2023/07/14 02:52:07;;;;;;;11.13;3.80;;;;;;;18.13;55.94;96481.81;5049248;28;20441;-71
2023/07/14 02:54:32;;;;;;;8.77;4.40;;;;;;;18.10;56.74;96477.56;5049188;28;20460;-71
2023/07/14 02:56:57;;;;;;;11.30;4.30;;;;;;;18.18;56.42;96480.50;5049133;28;20185;-71
2023/07/14 02:59:23;;;;;;;13.77;3.97;;;;;;;18.05;56.72;96473.53;5048808;28;20232;-71
2023/07/14 03:01:48;;;;;;;16.60;4.43;;;;;;;18.10;56.78;96469.59;5048931;28;20925;-70
2023/07/14 03:04:13;;;;;;;9.70;4.40;;;;;;;18.16;56.81;96465.63;5049291;28;20174;-71
2023/07/14 03:06:39;;;;;;;8.73;4.30;;;;;;;17.98;57.34;96455.41;5049150;28;20268;-72
2023/07/14 03:09:04;;;;;;;31.87;5.60;;;;;;;17.88;57.87;96462.34;5049043;28;20182;-71
2023/07/14 03:11:30;;;;;;;8.73;4.30;;;;;;;17.74;58.34;96462.44;5049145;28;20566;-70
2023/07/14 03:13:55;;;;;;;9.27;4.60;;;;;;;17.97;57.78;96461.66;5048867;28;20245;-71
2023/07/14 03:16:20;;;;;;;30.73;5.50;;;;;;;17.86;58.12;96461.63;5049100;28;20936;-71
2023/07/14 03:18:46;;;;;;;26.63;7.43;;;;;;;17.82;58.26;96467.25;5048930;28;20299;-71
2023/07/14 03:21:12;;;;;;;9.57;4.20;;;;;;;17.81;58.23;96461.09;5049270;28;20675;-71
2023/07/14 03:23:38;;;;;;;22.83;5.80;;;;;;;17.75;58.70;96461.50;5049458;28;20656;-71
2023/07/14 03:26:05;;;;;;;18.17;4.20;;;;;;;17.70;58.82;96464.47;5049142;28;20477;-71
2023/07/14 03:28:32;;;;;;;8.60;3.97;;;;;;;17.71;58.51;96458.19;5049833;28;20278;-71
2023/07/14 03:30:58;;;;;;;19.60;4.93;;;;;;;17.78;58.04;96461.28;5030763;28;20478;-71
2023/07/14 03:33:24;;;;;;;20.13;5.63;;;;;;;17.83;58.21;96455.66;5048739;28;20464;-71
2023/07/14 03:35:49;;;;;;;17.60;5.00;;;;;;;17.66;58.30;96462.16;5048458;28;20186;-71
2023/07/14 03:38:16;;;;;;;44.13;7.37;;;;;;;17.74;58.50;96460.66;5048813;28;20175;-72
2023/07/14 03:40:41;;;;;;;44.87;7.50;;;;;;;17.69;58.81;96456.63;5048499;28;20252;-71
2023/07/14 03:43:06;;;;;;;24.57;5.40;;;;;;;17.56;59.21;96451.34;5048787;28;20433;-69
2023/07/14 03:45:33;;;;;;;12.83;4.50;;;;;;;17.40;59.28;96448.09;5048618;28;20636;-71
2023/07/14 03:47:58;;;;;;;40.67;6.73;;;;;;;17.50;59.13;96447.34;5037794;28;20183;-71
2023/07/14 03:50:24;;;;;;;52.93;6.63;;;;;;;17.64;58.69;96443.69;5028658;28;20932;-71
2023/07/14 03:52:49;;;;;;;21.83;6.00;;;;;;;17.76;58.39;96444.59;5028438;28;20222;-70
2023/07/14 03:55:15;;;;;;;32.60;6.90;;;;;;;17.79;58.47;96447.06;5028374;28;20190;-70
2023/07/14 03:57:41;;;;;;;16.23;4.50;;;;;;;17.84;58.59;96449.41;5028307;28;20252;-71
2023/07/14 04:00:17;;;;;;;20.47;5.70;;;;;;;17.85;58.13;96451.09;5027819;28;21002;-71
2023/07/14 04:02:44;;;;;;;21.53;5.23;;;;;;;18.02;57.87;96452.53;5027839;28;20294;-71
2023/07/14 04:05:11;;;;;;;14.27;4.43;;;;;;;18.10;57.40;96443.03;5028022;28;20403;-71
2023/07/14 04:07:38;;;;;;;17.30;5.07;;;;;;;18.17;57.40;96440.78;5028252;28;20445;-71
2023/07/14 04:10:04;;;;;;;17.03;5.10;;;;;;;18.20;56.71;96440.56;5027981;28;20422;-71
2023/07/14 04:12:31;;;;;;;30.17;6.60;;;;;;;18.36;56.07;96442.94;5028104;28;20441;-70
2023/07/14 04:14:57;;;;;;;26.57;6.30;;;;;;;18.43;55.77;96438.00;5027921;28;20548;-70
2023/07/14 04:17:23;;;;;;;50.20;6.90;;;;;;;18.59;55.07;96435.88;5027907;28;20498;-72
2023/07/14 04:19:49;;;;;;;43.03;7.80;;;;;;;18.53;54.88;96437.19;5027840;28;20509;-71
2023/07/14 04:22:15;;;;;;;26.27;6.70;;;;;;;18.68;54.83;96437.00;5028158;28;20188;-72
2023/07/14 04:24:40;;;;;;;11.13;4.23;;;;;;;18.70;54.91;96427.94;5027891;28;20464;-75
2023/07/14 04:27:06;;;;;;;9.60;4.30;;;;;;;18.64;54.74;96425.75;5030727;28;20423;-71
2023/07/14 04:29:32;;;;;;;22.73;5.20;;;;;;;18.52;55.44;96431.97;5025606;28;20214;-72
2023/07/14 04:31:58;;;;;;;22.73;5.80;;;;;;;18.77;54.54;96418.56;5027325;28;20477;-71
2023/07/14 04:34:26;;;;;;;39.47;6.77;;;;;;;19.14;53.60;96413.06;5023090;28;20915;-71
2023/07/14 04:36:51;;;;;;;37.83;7.10;;;;;;;19.22;53.46;96415.13;5026855;28;20426;-71
2023/07/14 04:39:16;;;;;;;55.90;8.70;;;;;;;19.15;53.54;96413.91;5027178;28;20969;-71
2023/07/14 04:41:42;;;;;;;15.40;5.20;;;;;;;18.94;53.73;96413.75;5028900;28;20176;-72
2023/07/14 04:44:09;;;;;;;11.50;5.40;;;;;;;18.67;55.92;96409.56;5022747;28;20184;-72
2023/07/14 04:46:36;;;;;;;6.17;3.80;;;;;;;18.98;54.80;96409.91;5027008;28;20263;-70
2023/07/14 04:49:02;;;;;;;11.33;3.90;;;;;;;18.96;55.59;96415.34;5031863;28;20805;-71
2023/07/14 04:51:27;;;;;;;10.73;4.10;;;;;;;19.44;54.41;96411.59;5027311;28;20417;-71
2023/07/14 04:53:53;;;;;;;12.40;4.50;;;;;;;19.73;53.50;96411.16;5025829;28;20290;-71
2023/07/14 04:56:19;;;;;;;10.50;4.33;;;;;;;19.64;53.55;96402.06;5026649;28;20183;-71
2023/07/14 04:58:44;;;;;;;12.47;5.97;;;;;;;19.62;53.68;96409.31;5026868;28;20179;-70
2023/07/14 05:01:10;;;;;;;12.37;4.27;;;;;;;19.66;53.05;96410.75;5026411;28;20210;-70
2023/07/14 05:03:35;;;;;;;20.60;5.23;;;;;;;19.43;54.25;96415.25;5008806;28;20207;-70
2023/07/14 05:06:00;;;;;;;20.73;4.93;;;;;;;19.59;53.65;96414.88;5026664;28;20171;-72
2023/07/14 05:08:26;;;;;;;15.27;5.30;;;;;;;19.63;53.42;96411.84;5026945;28;20545;-70
2023/07/14 05:10:51;;;;;;;26.20;10.00;;;;;;;19.58;53.07;96405.19;5026514;28;20634;-70
2023/07/14 05:13:17;;;;;;;13.57;4.60;;;;;;;19.65;52.68;96412.59;5026837;28;20238;-70
2023/07/14 05:15:44;;;;;;;27.70;6.43;;;;;;;19.86;52.09;96414.50;5027053;28;20309;-71
2023/07/14 05:18:10;;;;;;;18.20;5.00;;;;;;;19.96;51.80;96417.25;5025501;28;20167;-71
2023/07/14 05:20:36;;;;;;;5.77;3.80;;;;;;;20.01;51.64;96405.28;5023353;28;20557;-69
2023/07/14 05:23:03;;;;;;;11.63;5.37;;;;;;;20.36;50.91;96409.50;5024662;28;20525;-71
2023/07/14 05:25:29;;;;;;;12.20;5.20;;;;;;;20.21;51.05;96406.28;5023578;28;20422;-71
2023/07/14 05:27:55;;;;;;;14.00;5.00;;;;;;;19.95;51.38;96411.09;5019981;28;20461;-71
2023/07/14 05:30:21;;;;;;;9.30;5.17;;;;;;;20.13;50.92;96408.75;5020930;28;20417;-71
2023/07/14 05:32:47;;;;;;;9.93;4.30;;;;;;;20.20;50.55;96401.94;5014882;28;20192;-71
2023/07/14 05:35:13;;;;;;;12.50;4.20;;;;;;;20.41;50.57;96403.78;5004626;28;20447;-70
2023/07/14 05:37:40;;;;;;;7.40;4.23;;;;;;;19.75;51.92;96396.75;5015277;28;20425;-72
2023/07/14 05:40:07;;;;;;;10.53;4.20;;;;;;;20.22;51.73;96386.69;5023306;28;20551;-72
2023/07/14 05:42:33;;;;;;;19.90;5.23;;;;;;;20.85;49.75;96392.06;5023080;28;20438;-72
2023/07/14 05:44:58;;;;;;;11.70;5.53;;;;;;;20.94;48.50;96371.78;5004755;28;20782;-72
2023/07/14 05:47:26;;;;;;;17.50;7.83;;;;;;;20.67;48.99;96391.81;5025557;28;20221;-71
2023/07/14 05:49:52;;;;;;;14.27;5.00;;;;;;;20.42;49.92;96395.66;5023435;28;20206;-71
2023/07/14 05:52:17;;;;;;;6.90;5.13;;;;;;;20.36;50.26;96393.50;5023395;28;20438;-70
2023/07/14 05:54:43;;;;;;;7.27;4.57;;;;;;;20.12;50.23;96401.72;5021347;28;20249;-70
2023/07/14 05:57:09;;;;;;;9.97;5.00;;;;;;;20.54;50.30;96392.97;5022664;28;20587;-72
2023/07/14 05:59:34;;;;;;;12.37;5.47;;;;;;;20.70;49.81;96396.06;5021925;28;20178;-72
2023/07/14 06:02:00;;;;;;;18.97;5.00;;;;;;;20.86;49.35;96385.78;5021968;28;20845;-70
2023/07/14 06:04:25;;;;;;;12.63;4.80;;;;;;;20.91;48.72;96377.38;5028647;28;20182;-70
2023/07/14 06:06:51;;;;;;;26.07;7.30;;;;;;;21.02;48.94;96384.44;5016965;28;20186;-71
2023/07/14 06:09:16;;;;;;;22.90;5.70;;;;;;;21.80;47.39;96380.25;5021664;28;20667;-71
2023/07/14 06:11:42;;;;;;;19.20;5.20;;;;;;;22.16;46.38;96370.78;5023428;28;20175;-71
2023/07/14 06:14:08;;;;;;;11.53;4.50;;;;;;;22.14;46.18;96379.91;5023260;28;20195;-71
2023/07/14 06:16:34;;;;;;;6.30;4.10;;;;;;;22.16;46.34;96380.63;5020729;28;20194;-72
2023/07/14 06:18:59;;;;;;;43.47;8.10;;;;;;;22.25;46.55;96392.31;5022311;28;20418;-71
2023/07/14 06:21:25;;;;;;;10.03;4.27;;;;;;;22.64;45.12;96381.63;5023397;28;21086;-72
2023/07/14 06:23:50;;;;;;;7.83;3.13;;;;;;;22.07;45.77;96378.78;5022823;28;20533;-71
2023/07/14 06:26:16;;;;;;;4.43;3.63;;;;;;;22.20;45.30;96382.00;5023275;28;20250;-70
2023/07/14 06:28:42;;;;;;;9.30;3.50;;;;;;;22.16;45.04;96386.81;5018472;28;20656;-70
2023/07/14 06:31:11;;;;;;;8.60;4.00;;;;;;;22.61;44.72;96385.44;5021640;28;20254;-71
2023/07/14 06:33:37;;;;;;;5.53;3.43;;;;;;;21.96;45.13;96390.44;5018988;28;20544;-71
2023/07/14 06:36:03;;;;;;;16.00;5.07;;;;;;;21.73;46.16;96388.00;5022777;28;20889;-71
2023/07/14 06:38:28;;;;;;;7.43;3.53;;;;;;;21.46;46.03;96377.09;5022739;28;20171;-70
2023/07/14 06:41:02;;;;;;;6.80;3.37;;;;;;;21.83;45.30;96380.00;5023807;28;21333;-71
2023/07/14 06:43:30;;;;;;;14.00;4.00;;;;;;;22.43;44.65;96377.28;5023514;28;20192;-72
2023/07/14 06:45:55;;;;;;;9.83;4.10;;;;;;;22.80;44.55;96376.53;5023757;28;21372;-68
2023/07/14 06:48:21;;;;;;;8.33;4.20;;;;;;;22.81;43.71;96370.19;5029492;28;20416;-67
2023/07/14 06:50:46;;;;;;;6.60;3.40;;;;;;;22.40;44.02;96362.38;5024787;28;20187;-69
2023/07/14 06:53:12;;;;;;;10.43;3.23;;;;;;;22.53;43.68;96369.25;5025264;28;20341;-67
2023/07/14 06:55:38;;;;;;;8.87;3.80;;;;;;;22.33;43.69;96358.56;5025292;28;20183;-70
2023/07/14 06:58:05;;;;;;;7.53;3.87;;;;;;;22.02;43.60;96357.81;5025438;28;20180;-69
2023/07/14 07:00:31;;;;;;;4.40;3.37;;;;;;;22.46;43.12;96354.75;5024500;28;20291;-69
2023/07/14 07:02:57;;;;;;;6.00;4.33;;;;;;;22.77;42.51;96348.25;5024239;28;20541;-70
2023/07/14 07:05:22;;;;;;;6.10;4.00;;;;;;;22.68;42.53;96349.09;5025313;28;20175;-68
2023/07/14 07:07:48;;;;;;;4.93;3.60;;;;;;;22.81;42.57;96341.59;5024763;28;20468;-69
2023/07/14 07:10:13;;;;;;;3.87;3.50;;;;;;;22.91;41.85;96362.13;5026852;28;20217;-70
2023/07/14 07:12:39;;;;;;;7.67;4.10;;;;;;;23.36;41.12;96343.56;5026218;28;20565;-69
2023/07/14 07:15:05;;;;;;;4.50;3.70;;;;;;;23.31;40.80;96334.28;5037922;28;20192;-70
2023/07/14 07:17:30;;;;;;;12.23;4.73;;;;;;;23.53;41.23;96339.25;5039860;28;20270;-68
2023/07/14 07:19:55;;;;;;;9.87;4.27;;;;;;;23.03;42.04;96332.44;5034075;28;20584;-69
2023/07/14 07:22:21;;;;;;;4.50;3.63;;;;;;;22.69;42.74;96333.91;5022288;28;20559;-69
2023/07/14 07:24:46;;;;;;;6.00;3.20;;;;;;;22.53;43.21;96329.97;5036678;28;20221;-69
2023/07/14 07:27:11;;;;;;;6.87;3.60;;;;;;;22.80;42.48;96331.06;5031928;28;20186;-69
2023/07/14 07:29:40;;;;;;;3.50;3.20;;;;;;;22.82;42.61;96331.75;5029430;28;20176;-68
2023/07/14 07:32:06;;;;;;;4.37;3.30;;;;;;;22.80;41.33;96323.88;5022040;28;20207;-69
2023/07/14 07:34:31;;;;;;;6.27;3.40;;;;;;;23.11;41.78;96325.50;5023413;28;20462;-69
2023/07/14 07:36:57;;;;;;;5.90;2.80;;;;;;;22.88;41.99;96325.81;5022864;28;20201;-69
2023/07/14 07:39:22;;;;;;;7.47;3.73;;;;;;;22.80;42.52;96309.66;5027254;28;20180;-67
2023/07/14 07:41:47;;;;;;;10.93;3.80;;;;;;;23.07;41.95;96316.06;5027027;28;20211;-66
2023/07/14 07:44:13;;;;;;;11.50;4.13;;;;;;;22.78;43.08;96312.47;5028128;28;20170;-68
2023/07/14 07:46:38;;;;;;;11.60;4.40;;;;;;;23.00;43.44;96313.13;5023332;28;20172;-68
2023/07/14 07:49:04;;;;;;;8.10;4.63;;;;;;;23.10;43.13;96307.75;5045961;28;20171;-68
2023/07/14 07:51:30;;;;;;;8.43;4.57;;;;;;;23.97;41.40;96306.41;5047425;28;20182;-68
2023/07/14 07:53:55;;;;;;;8.20;4.17;;;;;;;23.52;41.51;96313.44;5047683;28;20294;-68
2023/07/14 07:56:20;;;;;;;6.70;3.63;;;;;;;23.34;42.18;96309.88;5047848;28;20651;-68
2023/07/14 07:58:46;;;;;;;8.23;3.80;;;;;;;23.50;42.57;96303.88;5043376;28;20186;-69
2023/07/14 08:01:19;;;;;;;6.20;3.80;;;;;;;23.32;42.92;96307.38;5028200;28;20229;-67
2023/07/14 08:03:45;;;;;;;5.27;4.00;;;;;;;23.15;42.47;96302.78;5027698;28;20187;-71
2023/07/14 08:06:11;;;;;;;8.33;4.10;;;;;;;23.42;42.69;96300.13;5027727;28;20830;-68
2023/07/14 08:08:36;;;;;;;3.90;3.50;;;;;;;23.55;42.68;96282.84;5028156;28;20167;-67
2023/07/14 08:11:02;;;;;;;5.63;3.80;;;;;;;23.59;42.65;96285.06;5027456;28;20632;-67
2023/07/14 08:13:29;;;;;;;6.30;3.40;;;;;;;24.02;41.44;96286.19;5027530;28;20261;-68
2023/07/14 08:15:55;;;;;;;8.03;4.03;;;;;;;23.84;41.32;96282.69;5027485;28;20171;-68
2023/07/14 08:18:22;;;;;;;5.47;4.60;;;;;;;23.49;41.42;96284.28;5027799;28;20425;-67
2023/07/14 08:20:49;;;;;;;4.00;3.47;;;;;;;23.79;41.70;96290.34;5027951;28;20445;-67
2023/07/14 08:23:15;;;;;;;7.80;3.60;;;;;;;23.67;42.70;96287.84;5027586;28;20533;-68
2023/07/14 08:25:41;;;;;;;5.13;3.60;;;;;;;24.01;41.68;96281.00;5027393;28;20429;-67
2023/07/14 08:28:07;;;;;;;6.03;4.40;;;;;;;24.00;40.91;96284.66;5027911;28;20411;-69
2023/07/14 08:30:32;;;;;;;8.33;4.00;;;;;;;24.08;40.61;96285.59;5025439;28;20281;-68
2023/07/14 08:32:58;;;;;;;6.30;3.40;;;;;;;24.22;40.65;96278.00;5024128;28;20546;-67
2023/07/14 08:35:24;;;;;;;5.20;3.40;;;;;;;24.29;38.96;96279.91;5015142;28;20183;-68
2023/07/14 08:37:50;;;;;;;4.30;3.30;;;;;;;24.21;39.14;96269.13;5027499;28;20214;-69
2023/07/14 08:40:20;;;;;;;6.80;3.43;;;;;;;24.60;39.28;96258.03;5026890;28;20422;-68
2023/07/14 08:43:09;;;;;;;8.43;3.67;;;;;;;24.62;39.11;96271.28;5027207;28;20219;-69
2023/07/14 08:45:51;;;;;;;8.90;3.30;;;;;;;24.26;38.42;96266.81;5016056;28;20430;-69
2023/07/14 08:48:41;;;;;;;3.70;3.30;;;;;;;23.84;39.46;96278.16;5031600;28;20521;-68
2023/07/14 08:51:20;;;;;;;6.33;3.57;;;;;;;23.91;39.17;96285.59;5020376;28;20929;-69
2023/07/14 08:53:57;;;;;;;7.00;4.17;;;;;;;24.13;39.56;96271.72;5025568;28;20932;-69
2023/07/14 08:56:24;;;;;;;10.83;4.80;;;;;;;24.05;39.25;96269.00;5007568;28;20427;-69
2023/07/14 08:58:52;;;;;;;9.60;5.10;;;;;;;24.37;39.36;96272.91;5022352;28;21019;-69
2023/07/14 09:01:34;;;;;;;5.50;3.80;;;;;;;24.36;38.87;96265.88;5025916;28;20453;-69
2023/07/14 09:04:04;;;;;;;9.97;3.97;;;;;;;24.69;38.57;96265.13;5012893;28;20464;-69
2023/07/14 09:06:33;;;;;;;7.17;3.13;;;;;;;24.98;37.75;96263.94;5026866;28;20429;-67
2023/07/14 09:08:59;;;;;;;6.63;4.17;;;;;;;24.37;39.11;96273.75;5025845;28;20441;-69
2023/07/14 09:11:52;;;;;;;8.47;5.60;;;;;;;24.62;38.85;96277.50;5021848;28;20449;-68
2023/07/14 09:14:28;;;;;;;4.90;4.33;;;;;;;24.44;39.36;96263.25;5026672;28;20252;-68
2023/07/14 09:17:05;;;;;;;15.70;4.47;;;;;;;24.44;39.29;96256.03;5039832;28;20413;-68
2023/07/14 09:20:23;;;;;;;6.97;4.13;;;;;;;24.58;39.42;96253.81;5046976;28;21239;-69
2023/07/14 09:23:04;;;;;;;4.10;2.67;;;;;;;24.70;39.20;96249.88;5031166;28;21026;-67
2023/07/14 09:25:50;;;;;;;12.70;5.70;;;;;;;24.29;39.40;96245.03;5030420;28;20792;-68
2023/07/14 09:28:20;;;;;;;10.23;3.80;;;;;;;24.80;39.56;96239.00;5028140;28;20428;-68
2023/07/14 09:30:48;;;;;;;4.03;3.60;;;;;;;25.11;38.29;96232.13;5026249;28;20530;-68
2023/07/14 09:33:17;;;;;;;5.80;3.63;;;;;;;25.06;37.50;96236.28;5022652;28;21272;-68
2023/07/14 09:35:45;;;;;;;4.23;3.20;;;;;;;25.09;37.80;96236.81;5021015;28;20430;-68
2023/07/14 09:38:22;;;;;;;4.30;2.90;;;;;;;24.91;37.84;96242.25;5023989;28;20886;-69
2023/07/14 09:40:58;;;;;;;8.10;3.57;;;;;;;24.94;36.64;96235.72;5014857;28;20434;-69
2023/07/14 09:43:24;;;;;;;4.33;3.73;;;;;;;24.97;36.33;96237.25;5026239;28;20795;-68
2023/07/14 09:45:55;;;;;;;4.93;3.63;;;;;;;24.92;37.13;96235.03;5031241;28;20434;-68
2023/07/14 09:48:34;;;;;;;6.67;3.60;;;;;;;24.89;35.13;96227.31;5039534;28;20189;-68
2023/07/14 09:51:12;;;;;;;8.07;3.50;;;;;;;24.77;37.50;96231.28;5032432;28;20445;-69
2023/07/14 09:53:39;;;;;;;5.70;4.20;;;;;;;24.36;37.15;96233.69;5024778;28;20967;-68
2023/07/14 09:56:13;;;;;;;5.63;3.23;;;;;;;24.47;36.64;96230.75;5025720;28;20528;-68
2023/07/14 09:58:38;;;;;;;6.73;3.47;;;;;;;25.10;35.70;96219.69;5026161;28;20415;-69
2023/07/14 10:01:13;;;;;;;5.77;3.57;;;;;;;25.02;36.30;96230.41;5026509;28;20468;-69
2023/07/14 10:03:47;;;;;;;19.17;5.17;;;;;;;24.80;36.68;96230.97;5022104;28;20672;-68
2023/07/14 10:06:20;;;;;;;19.13;4.40;;;;;;;25.04;37.14;96235.59;5022120;28;20421;-69
2023/07/14 10:08:57;;;;;;;8.33;3.23;;;;;;;24.79;36.58;96222.06;5026514;28;20411;-67
2023/07/14 10:11:28;;;;;;;6.90;3.50;;;;;;;25.07;37.03;96221.88;5025270;28;20434;-69
2023/07/14 10:13:59;;;;;;;6.13;3.17;;;;;;;25.09;36.37;96209.13;5025461;28;20496;-68
2023/07/14 10:16:26;;;;;;;3.70;2.77;;;;;;;25.05;36.00;96216.66;5022821;28;20465;-69
2023/07/14 10:19:04;;;;;;;3.87;2.93;;;;;;;25.14;36.30;96209.47;5025674;28;20442;-69
2023/07/14 10:21:32;;;;;;;3.37;3.07;;;;;;;25.14;36.34;96213.00;5025752;28;20880;-69
2023/07/14 10:23:59;;;;;;;6.80;3.37;;;;;;;24.45;36.93;96201.41;5025879;28;20406;-69
2023/07/14 10:26:28;;;;;;;7.67;2.93;;;;;;;24.88;36.10;96196.13;5024152;28;20750;-68
2023/07/14 10:28:54;;;;;;;6.10;3.00;;;;;;;25.20;35.73;96197.25;5025439;28;20458;-69
2023/07/14 10:31:55;;;;;;;4.73;2.50;;;;;;;25.23;34.98;96189.75;5025963;28;20418;-70
2023/07/14 10:34:35;;;;;;;6.43;2.53;;;;;;;24.52;36.97;96190.91;5022025;28;20309;-68
2023/07/14 10:37:09;;;;;;;10.20;3.77;;;;;;;24.76;37.15;96186.66;5028333;28;20442;-69
2023/07/14 10:39:41;;;;;;;11.90;4.00;;;;;;;24.96;37.11;96180.03;5022639;28;20476;-70
2023/07/14 10:42:15;;;;;;;4.00;3.27;;;;;;;24.93;36.60;96183.06;5026020;28;20554;-69
2023/07/14 10:44:43;;;;;;;32.23;7.10;;;;;;;25.22;36.95;96173.78;5033452;28;20454;-69
2023/07/14 10:47:25;;;;;;;9.00;3.37;;;;;;;25.27;36.83;96177.63;5033272;28;20550;-68
2023/07/14 10:50:12;;;;;;;11.23;4.73;;;;;;;25.24;36.67;96175.28;5025394;28;20441;-69
2023/07/14 10:52:43;;;;;;;8.77;3.07;;;;;;;25.20;35.30;96173.94;5026654;28;20936;-70
2023/07/14 10:55:17;;;;;;;4.50;3.00;;;;;;;25.20;35.95;96175.78;5025825;28;20524;-69
2023/07/14 10:58:08;;;;;;;13.90;3.53;;;;;;;25.33;34.19;96174.31;5026236;28;20441;-69
2023/07/14 11:00:34;;;;;;;18.30;5.23;;;;;;;25.80;33.65;96163.97;5029529;28;20425;-69
2023/07/14 11:03:16;;;;;;;24.50;5.10;;;;;;;26.12;34.04;96158.56;5027535;28;21012;-69
2023/07/14 11:05:48;;;;;;;6.50;2.83;;;;;;;26.02;35.50;96166.00;5029160;28;20176;-69
2023/07/14 11:08:14;;;;;;;3.70;3.13;;;;;;;25.42;36.17;96159.06;5028196;28;20437;-69
2023/07/14 11:11:00;;;;;;;7.13;3.17;;;;;;;25.75;35.53;96151.03;5028676;28;20448;-69
2023/07/14 11:13:56;;;;;;;4.90;3.00;;;;;;;25.23;36.95;96135.16;5028487;28;21053;-67
2023/07/14 11:16:29;;;;;;;17.33;5.60;;;;;;;25.67;36.49;96142.94;4989507;28;21021;-70
2023/07/14 11:19:06;;;;;;;4.83;3.00;;;;;;;25.74;36.28;96139.41;5036695;28;20438;-70
2023/07/14 11:22:07;;;;;;;8.70;3.70;;;;;;;25.59;36.50;96134.91;5044676;28;20442;-69
2023/07/14 11:24:37;;;;;;;4.57;3.23;;;;;;;25.28;36.51;96135.53;5031874;28;20430;-70
2023/07/14 11:27:16;;;;;;;4.87;2.87;;;;;;;25.62;35.73;96137.25;5034439;28;20458;-70
2023/07/14 11:29:52;;;;;;;4.63;3.40;;;;;;;25.52;36.71;96135.56;5031614;28;20890;-69
2023/07/14 11:32:20;;;;;;;3.60;3.30;;;;;;;25.41;36.59;96133.19;5026255;28;20522;-68
2023/07/14 11:35:02;;;;;;;5.40;3.57;;;;;;;25.17;35.99;96130.44;5026113;28;20486;-68
2023/07/14 11:37:53;;;;;;;9.30;4.00;;;;;;;25.29;36.29;96121.09;5022404;28;20447;-69
2023/07/14 11:40:22;;;;;;;3.30;3.00;;;;;;;25.60;36.46;96123.97;5026470;28;20524;-69